Terminal Aerodrome Forecast
Issued by NWS Flagstaff, AZ

Home | Current Version | Previous Version | Text Only | Print | Product List | Glossary On
Versions: 1 2 3 4 5 6 7 8 9 10 11 12 13 14 15 16 17 18 19
000
FTUS45 KFGZ 020536
TAFFLG
TAF
KFLG 020536Z 0206/0306 05012G22KT P6SM SCT080 OVC110
      TEMPO 0206/0208 06018G32KT 5SM TSRA SCT060 BKN080CB
     FM020900 09007KT P6SM SCT080 BKN120
     FM021800 24008KT P6SM SCT080 BKN120 PROB30 0220/0224 5SM TSRA
      BKN060CB=

USA.gov is the U.S. government's official web portal to all federal, state and local government web resources and services.